createdAt,value
2023-04-20T00:01:50.452Z,8.30
2023-04-20T00:04:18.551Z,8.50
2023-04-20T00:06:46.260Z,8.50
2023-04-20T00:09:26.767Z,8.40
2023-04-20T00:11:54.311Z,8.40
2023-04-20T00:14:35.620Z,8.40
2023-04-20T00:17:03.271Z,8.50
2023-04-20T00:19:33.585Z,8.30
2023-04-20T00:22:01.294Z,8.50
2023-04-20T00:24:28.620Z,8.20
2023-04-20T00:26:55.951Z,8.40
2023-04-20T00:29:23.711Z,8.30
2023-04-20T00:31:51.897Z,8.40
2023-04-20T00:34:19.165Z,8.30
2023-04-20T00:36:46.998Z,8.40
2023-04-20T00:39:14.319Z,8.30
2023-04-20T00:41:42.024Z,8.40
2023-04-20T00:44:11.661Z,8.30
2023-04-20T00:46:42.159Z,8.30
2023-04-20T00:49:10.211Z,8.30
2023-04-20T00:51:39.075Z,8.30
2023-04-20T00:54:06.655Z,8.40
2023-04-20T00:56:34.790Z,8.60
2023-04-20T00:59:04.799Z,8.30
2023-04-20T01:01:35.320Z,8.20
2023-04-20T01:04:02.815Z,8.30
2023-04-20T01:06:30.861Z,8.10
2023-04-20T01:08:58.000Z,8.30
2023-04-20T01:11:25.481Z,8.40
2023-04-20T01:13:52.704Z,8.20
2023-04-20T01:16:23.015Z,8.30
2023-04-20T01:18:51.430Z,8.10
2023-04-20T01:21:22.053Z,8.40
2023-04-20T01:23:49.845Z,8.40
2023-04-20T01:26:19.035Z,8.40
2023-04-20T01:28:47.342Z,8.40
2023-04-20T01:31:15.145Z,8.20
2023-04-20T01:33:42.325Z,8.40
2023-04-20T01:36:10.253Z,8.10
2023-04-20T01:38:38.331Z,8.10
2023-04-20T01:41:07.635Z,8.00
2023-04-20T01:43:36.802Z,8.10
2023-04-20T01:48:45.637Z,8.20
2023-04-20T01:51:12.901Z,8.10
2023-04-20T01:53:40.189Z,8.00
2023-04-20T01:56:07.802Z,8.00
2023-04-20T01:58:35.357Z,7.80
2023-04-20T02:01:03.080Z,7.80
2023-04-20T02:03:30.417Z,7.70
2023-04-20T02:05:57.915Z,7.80
2023-04-20T02:08:25.298Z,7.80
2023-04-20T02:10:56.024Z,7.60
2023-04-20T02:13:23.065Z,7.70
2023-04-20T02:15:50.743Z,7.80
2023-04-20T02:18:18.176Z,7.80
2023-04-20T02:20:49.044Z,7.70
2023-04-20T02:23:20.992Z,7.60
2023-04-20T02:25:50.504Z,7.70
2023-04-20T02:28:21.175Z,7.80
2023-04-20T02:30:48.897Z,7.40
2023-04-20T02:33:16.517Z,7.70
2023-04-20T02:35:46.390Z,7.60
2023-04-20T02:38:14.032Z,7.80
2023-04-20T02:40:41.369Z,7.50
2023-04-20T02:43:11.289Z,7.80
2023-04-20T02:45:38.685Z,7.60
2023-04-20T02:48:06.869Z,7.80
2023-04-20T02:50:35.513Z,8.00
2023-04-20T02:53:06.162Z,7.90
2023-04-20T02:55:33.772Z,7.50
2023-04-20T02:58:01.260Z,7.60
2023-04-20T03:00:28.533Z,7.40
2023-04-20T03:02:56.139Z,7.60
2023-04-20T03:05:23.617Z,7.30
2023-04-20T03:07:51.280Z,7.20
2023-04-20T03:10:18.484Z,7.50
2023-04-20T03:12:46.039Z,7.20
2023-04-20T03:15:13.859Z,7.40
2023-04-20T03:17:41.392Z,7.40
2023-04-20T03:20:10.842Z,7.10
2023-04-20T03:22:37.855Z,7.40
2023-04-20T03:25:06.674Z,6.90
2023-04-20T03:27:34.514Z,7.20
2023-04-20T03:30:01.999Z,7.10
2023-04-20T03:32:30.821Z,7.20
2023-04-20T03:34:59.570Z,7.10
2023-04-20T03:37:28.677Z,7.10
2023-04-20T03:39:56.395Z,7.20
2023-04-20T03:42:24.122Z,7.20
2023-04-20T03:44:51.343Z,7.00
2023-04-20T03:47:18.781Z,7.00
2023-04-20T03:49:46.036Z,7.10
2023-04-20T03:52:14.303Z,7.10
2023-04-20T03:54:41.366Z,6.70
2023-04-20T03:57:08.381Z,7.00
2023-04-20T03:59:35.987Z,6.60
2023-04-20T04:02:03.486Z,6.60
2023-04-20T04:04:31.959Z,6.90
2023-04-20T04:06:59.835Z,7.00
2023-04-20T04:09:27.452Z,7.10
2023-04-20T04:11:56.248Z,6.90
2023-04-20T04:14:23.607Z,6.70
2023-04-20T04:16:51.014Z,7.10
2023-04-20T04:19:18.447Z,6.90
2023-04-20T04:21:46.355Z,6.70
2023-04-20T04:24:14.589Z,7.10
2023-04-20T04:26:41.718Z,7.00
2023-04-20T04:29:10.739Z,6.60
2023-04-20T04:31:38.875Z,6.80
2023-04-20T04:34:06.038Z,6.90
2023-04-20T04:36:34.504Z,7.00
2023-04-20T04:39:01.914Z,7.00
2023-04-20T04:41:29.143Z,6.70
2023-04-20T04:43:56.387Z,6.70
2023-04-20T04:46:25.744Z,6.70
2023-04-20T04:48:52.897Z,6.70
2023-04-20T04:51:23.978Z,7.00
2023-04-20T04:53:51.575Z,6.70
2023-04-20T04:56:18.925Z,7.00
2023-04-20T04:58:46.095Z,6.70
2023-04-20T05:01:14.563Z,6.60
2023-04-20T05:03:41.820Z,6.50
2023-04-20T05:06:09.298Z,6.60
2023-04-20T05:08:47.485Z,6.80
2023-04-20T05:11:15.009Z,6.90
2023-04-20T05:13:42.039Z,6.60
2023-04-20T05:16:09.518Z,6.80
2023-04-20T05:18:36.875Z,6.80
2023-04-20T05:21:06.503Z,6.80
2023-04-20T05:23:33.880Z,6.80
2023-04-20T05:26:03.077Z,6.80
2023-04-20T05:28:31.089Z,6.80
2023-04-20T05:30:58.378Z,6.80
2023-04-20T05:33:26.654Z,6.50
2023-04-20T05:35:58.355Z,6.50
2023-04-20T05:38:25.871Z,6.50
2023-04-20T05:40:53.345Z,6.50
2023-04-20T05:43:20.980Z,6.70
2023-04-20T05:45:49.025Z,6.70
2023-04-20T05:48:16.860Z,6.50
2023-04-20T05:50:44.410Z,6.80
2023-04-20T05:53:14.496Z,7.00
2023-04-20T05:55:41.903Z,6.80
2023-04-20T05:58:09.770Z,6.80
2023-04-20T06:00:37.295Z,6.60
2023-04-20T06:03:05.050Z,6.80
2023-04-20T06:05:39.336Z,6.60
2023-04-20T06:08:09.083Z,6.80
2023-04-20T06:10:36.730Z,6.80
2023-04-20T06:13:04.037Z,6.80
2023-04-20T06:15:31.514Z,6.80
2023-04-20T06:17:59.493Z,6.70
2023-04-20T06:20:26.853Z,6.80
2023-04-20T06:22:55.254Z,6.80
2023-04-20T06:25:22.700Z,6.80
2023-04-20T06:27:52.013Z,6.80
2023-04-20T06:30:20.256Z,7.00
2023-04-20T06:32:47.655Z,6.80
2023-04-20T06:35:25.326Z,6.80
2023-04-20T06:37:53.093Z,6.80
2023-04-20T06:40:20.893Z,6.80
2023-04-20T06:42:47.974Z,6.70
2023-04-20T06:45:15.173Z,6.80
2023-04-20T06:47:42.760Z,6.70
2023-04-20T06:50:11.410Z,6.90
2023-04-20T06:52:42.101Z,6.70
2023-04-20T06:55:10.343Z,6.80
2023-04-20T06:57:40.242Z,6.80
2023-04-20T07:00:09.991Z,6.70
2023-04-20T07:02:46.806Z,7.20
2023-04-20T07:05:14.661Z,7.10
2023-04-20T07:07:42.862Z,7.20
2023-04-20T07:10:17.685Z,6.90
2023-04-20T07:12:45.839Z,7.10
2023-04-20T07:15:13.607Z,7.20
2023-04-20T07:17:43.699Z,7.20
2023-04-20T07:20:11.616Z,7.20
2023-04-20T07:22:39.594Z,7.50
2023-04-20T07:25:09.347Z,7.20
2023-04-20T07:27:38.897Z,7.60
2023-04-20T07:30:07.701Z,7.60
2023-04-20T07:32:35.750Z,7.20
2023-04-20T07:35:03.821Z,7.00
2023-04-20T07:37:32.447Z,7.30
2023-04-20T07:39:59.753Z,7.30
2023-04-20T07:42:27.516Z,7.30
2023-04-20T07:44:57.827Z,7.40
2023-04-20T07:47:34.791Z,7.30
2023-04-20T07:50:02.906Z,7.20
2023-04-20T07:52:30.776Z,7.60
2023-04-20T07:54:59.489Z,7.20
2023-04-20T07:57:28.340Z,7.50
2023-04-20T07:59:57.732Z,7.60
2023-04-20T08:02:25.327Z,7.80
2023-04-20T08:04:56.547Z,7.50
2023-04-20T08:07:24.767Z,7.70
2023-04-20T08:09:52.484Z,7.70
2023-04-20T08:12:19.646Z,7.70
2023-04-20T08:14:47.654Z,7.80
2023-04-20T08:17:17.061Z,7.80
2023-04-20T08:19:46.066Z,8.00
2023-04-20T08:22:13.703Z,8.00
2023-04-20T08:24:41.142Z,7.70
2023-04-20T08:27:09.795Z,7.90
2023-04-20T08:29:48.837Z,8.10
2023-04-20T08:32:17.564Z,8.20
2023-04-20T08:34:45.069Z,8.20
2023-04-20T08:37:12.227Z,8.00
2023-04-20T08:39:39.545Z,8.10
2023-04-20T08:42:07.257Z,8.30
2023-04-20T08:44:35.130Z,8.60
2023-04-20T08:47:04.061Z,8.50
2023-04-20T08:49:33.392Z,8.80
2023-04-20T08:52:01.284Z,8.60
2023-04-20T08:54:28.412Z,8.60
2023-04-20T08:56:56.997Z,8.70
2023-04-20T08:59:27.867Z,8.90
2023-04-20T09:01:55.843Z,9.00
2023-04-20T09:04:27.821Z,9.00
2023-04-20T09:06:56.485Z,9.20
2023-04-20T09:09:27.816Z,9.50
2023-04-20T09:12:08.073Z,9.20
2023-04-20T09:14:54.134Z,9.50
2023-04-20T09:17:35.782Z,9.20
2023-04-20T09:20:05.449Z,9.20
2023-04-20T09:22:34.576Z,9.50
2023-04-20T09:25:16.251Z,9.60
2023-04-20T09:27:43.481Z,9.70
2023-04-20T09:30:18.300Z,9.40
2023-04-20T09:32:47.740Z,9.80
2023-04-20T09:35:23.462Z,9.80
2023-04-20T09:37:51.206Z,9.80
2023-04-20T09:40:19.931Z,9.60
2023-04-20T09:42:53.284Z,9.80
2023-04-20T09:45:21.179Z,9.90
2023-04-20T09:47:52.991Z,9.70
2023-04-20T09:50:28.888Z,9.80
2023-04-20T09:52:57.931Z,9.60
2023-04-20T09:55:26.970Z,9.90
2023-04-20T09:57:54.629Z,9.70
2023-04-20T10:00:22.586Z,9.70
2023-04-20T10:02:52.332Z,9.30
2023-04-20T10:05:19.668Z,9.40
2023-04-20T10:07:46.830Z,9.30
2023-04-20T10:10:16.329Z,9.30
2023-04-20T10:15:42.569Z,9.20
2023-04-20T10:18:24.719Z,9.20
2023-04-20T10:20:52.757Z,9.00
2023-04-20T10:23:21.436Z,9.20
2023-04-20T10:26:01.251Z,8.90
2023-04-20T10:28:42.428Z,8.70
2023-04-20T10:31:13.837Z,8.90
2023-04-20T10:33:51.911Z,8.40
2023-04-20T10:36:30.344Z,8.50
2023-04-20T10:38:59.074Z,8.50
2023-04-20T10:41:26.540Z,8.30
2023-04-20T10:43:54.008Z,8.40
2023-04-20T10:46:25.794Z,8.30
2023-04-20T10:49:02.583Z,8.20
2023-04-20T10:51:30.110Z,8.40
2023-04-20T10:54:00.273Z,8.30
2023-04-20T10:56:28.208Z,8.30
2023-04-20T10:59:05.925Z,8.50
2023-04-20T11:01:33.802Z,8.60
2023-04-20T11:04:01.570Z,8.50
2023-04-20T11:06:29.167Z,8.70
2023-04-20T11:08:56.760Z,8.70
2023-04-20T11:11:27.593Z,8.80
2023-04-20T11:14:09.216Z,8.90
2023-04-20T11:16:50.745Z,9.20
2023-04-20T11:19:28.259Z,9.00
2023-04-20T11:21:56.267Z,9.00
2023-04-20T11:24:26.544Z,9.00
2023-04-20T11:26:54.804Z,8.90
2023-04-20T11:29:31.420Z,8.90
2023-04-20T11:32:00.102Z,8.80
2023-04-20T11:34:28.160Z,8.80
2023-04-20T11:36:57.454Z,8.70
2023-04-20T11:39:26.164Z,8.70
2023-04-20T11:41:54.756Z,8.60
2023-04-20T11:44:26.294Z,8.70
2023-04-20T11:46:57.217Z,8.40
2023-04-20T11:49:25.311Z,8.80
2023-04-20T11:51:55.915Z,8.60
2023-04-20T11:54:24.504Z,8.70
2023-04-20T11:56:52.066Z,9.00
2023-04-20T11:59:21.275Z,8.90
2023-04-20T12:01:49.144Z,8.90
2023-04-20T12:04:29.115Z,8.80
2023-04-20T12:06:58.623Z,8.70
2023-04-20T12:09:30.841Z,8.90
2023-04-20T12:12:08.329Z,8.90
2023-04-20T12:14:36.192Z,8.80
2023-04-20T12:17:04.983Z,8.80
2023-04-20T12:19:34.715Z,9.20
2023-04-20T12:22:01.963Z,8.90
2023-04-20T12:24:29.551Z,8.90
2023-04-20T12:26:59.506Z,8.80
2023-04-20T12:29:34.660Z,9.10
2023-04-20T12:32:02.364Z,8.70
2023-04-20T12:34:30.740Z,9.10
2023-04-20T12:36:57.933Z,8.70
2023-04-20T12:39:27.752Z,8.90
2023-04-20T12:41:54.997Z,8.80
2023-04-20T12:44:22.236Z,8.70
2023-04-20T12:46:51.659Z,8.70
2023-04-20T12:49:19.454Z,8.70
2023-04-20T12:51:46.968Z,8.70
2023-04-20T12:54:14.131Z,8.60
2023-04-20T12:56:48.998Z,8.60
2023-04-20T12:59:16.209Z,8.40
2023-04-20T13:01:43.538Z,8.50
2023-04-20T13:04:13.848Z,8.40
2023-04-20T13:06:42.797Z,8.30
2023-04-20T13:09:09.990Z,8.40
2023-04-20T13:11:49.970Z,8.30
2023-04-20T13:14:17.679Z,8.10
2023-04-20T13:16:44.978Z,7.90
2023-04-20T13:19:12.120Z,8.10
2023-04-20T13:21:39.239Z,8.10
2023-04-20T13:24:06.645Z,8.00
2023-04-20T13:26:33.795Z,8.00
2023-04-20T13:29:01.358Z,8.40
2023-04-20T13:31:33.928Z,8.00
2023-04-20T13:34:01.313Z,8.20
2023-04-20T13:36:28.549Z,8.10
2023-04-20T13:38:56.511Z,7.90
2023-04-20T13:41:26.841Z,8.10
2023-04-20T13:43:54.387Z,8.30
2023-04-20T13:46:21.716Z,8.30
2023-04-20T13:48:49.188Z,8.10
2023-04-20T13:51:16.412Z,7.80
2023-04-20T13:53:43.801Z,8.00
2023-04-20T13:56:11.259Z,8.10
2023-04-20T13:58:38.710Z,8.00
2023-04-20T14:01:13.450Z,8.10
2023-04-20T14:03:42.157Z,7.90
2023-04-20T14:06:11.840Z,8.20
2023-04-20T14:08:40.840Z,8.20
2023-04-20T14:11:07.994Z,8.30
2023-04-20T14:13:38.321Z,8.20
2023-04-20T14:16:10.228Z,8.20
2023-04-20T14:18:38.261Z,8.30
2023-04-20T14:21:07.123Z,7.90
2023-04-20T14:23:34.494Z,8.20
2023-04-20T14:26:04.423Z,8.30
2023-04-20T14:28:33.376Z,8.40
2023-04-20T14:31:02.660Z,8.30
2023-04-20T14:33:30.176Z,8.40
2023-04-20T14:35:57.819Z,8.30
2023-04-20T14:38:25.777Z,8.70
2023-04-20T14:40:53.550Z,8.30
2023-04-20T14:43:21.220Z,8.50
2023-04-20T14:45:49.213Z,8.60
2023-04-20T14:48:17.160Z,8.40
2023-04-20T14:50:44.509Z,8.40
2023-04-20T14:53:12.206Z,8.50
2023-04-20T14:55:40.038Z,8.40
2023-04-20T14:58:07.383Z,8.30
2023-04-20T15:00:35.136Z,8.40
2023-04-20T15:03:02.932Z,8.20
2023-04-20T15:05:30.350Z,8.30
2023-04-20T15:07:58.255Z,7.90
2023-04-20T15:10:26.200Z,8.00
2023-04-20T15:12:53.792Z,8.10
2023-04-20T15:15:34.568Z,7.70
2023-04-20T15:18:09.840Z,7.80
2023-04-20T15:20:37.132Z,7.50
2023-04-20T15:23:04.366Z,7.50
2023-04-20T15:25:31.933Z,7.90
2023-04-20T15:27:59.586Z,7.80
2023-04-20T15:30:26.736Z,7.90
2023-04-20T15:32:54.301Z,7.70
2023-04-20T15:35:21.880Z,7.70
2023-04-20T15:37:52.431Z,7.60
2023-04-20T15:40:21.645Z,7.70
2023-04-20T15:42:49.770Z,7.60
2023-04-20T15:45:17.424Z,7.60
2023-04-20T15:47:45.110Z,7.70
2023-04-20T15:50:12.858Z,7.80
2023-04-20T15:52:40.435Z,7.70
2023-04-20T15:55:10.206Z,7.60
2023-04-20T15:57:38.497Z,7.90
2023-04-20T16:00:07.775Z,8.00
2023-04-20T16:02:35.903Z,7.90
2023-04-20T16:05:03.503Z,7.80
2023-04-20T16:07:31.202Z,8.00
2023-04-20T16:09:58.594Z,7.90
2023-04-20T16:12:26.202Z,8.10
2023-04-20T16:14:54.166Z,8.20
2023-04-20T16:17:21.736Z,8.30
2023-04-20T16:19:49.400Z,8.30
2023-04-20T16:22:17.289Z,8.30
2023-04-20T16:24:45.020Z,8.40
2023-04-20T16:27:12.585Z,8.40
2023-04-20T16:29:40.345Z,8.60
2023-04-20T16:32:10.066Z,8.70
2023-04-20T16:34:39.278Z,8.40
2023-04-20T16:37:06.817Z,8.60
2023-04-20T16:39:37.873Z,8.60
2023-04-20T16:42:05.276Z,8.60
2023-04-20T16:44:33.074Z,8.50
2023-04-20T16:47:02.311Z,8.30
2023-04-20T16:49:30.183Z,8.60
2023-04-20T16:51:57.837Z,8.40
2023-04-20T16:54:25.261Z,8.70
2023-04-20T16:56:52.654Z,8.60
2023-04-20T16:59:20.034Z,8.60
2023-04-20T17:01:49.487Z,8.70
2023-04-20T17:04:18.732Z,8.70
2023-04-20T17:06:46.960Z,8.60
2023-04-20T17:09:14.754Z,8.40
2023-04-20T17:11:42.058Z,8.40
2023-04-20T17:14:09.736Z,8.60
2023-04-20T17:16:37.347Z,8.60
2023-04-20T17:19:07.284Z,8.30
2023-04-20T17:21:34.446Z,8.60
2023-04-20T17:24:02.061Z,8.60
2023-04-20T17:26:29.350Z,8.80
2023-04-20T17:28:56.837Z,8.70
2023-04-20T17:31:24.265Z,8.70
2023-04-20T17:33:51.439Z,8.80
2023-04-20T17:36:18.742Z,8.70
2023-04-20T17:38:46.243Z,8.80
2023-04-20T17:41:13.478Z,8.90
2023-04-20T17:43:41.277Z,8.70
2023-04-20T17:46:08.630Z,8.80
2023-04-20T17:48:39.197Z,8.80
2023-04-20T17:51:06.595Z,8.60
2023-04-20T17:53:33.646Z,8.60
2023-04-20T17:56:00.825Z,8.60
2023-04-20T17:58:28.150Z,8.20
2023-04-20T18:00:55.404Z,8.40
2023-04-20T18:03:23.296Z,8.30
2023-04-20T18:05:53.733Z,8.30
2023-04-20T18:08:23.420Z,8.30
2023-04-20T18:10:50.886Z,8.80
2023-04-20T18:13:18.050Z,8.70
2023-04-20T18:15:47.601Z,8.80
2023-04-20T18:18:16.924Z,8.80
2023-04-20T18:20:44.467Z,8.70
2023-04-20T18:23:15.384Z,8.20
2023-04-20T18:25:42.967Z,8.30
2023-04-20T18:28:11.826Z,8.00
2023-04-20T18:30:39.691Z,8.00
2023-04-20T18:33:07.031Z,7.60
2023-04-20T18:35:34.350Z,7.80
2023-04-20T18:38:05.961Z,7.60
2023-04-20T18:40:33.125Z,7.70
2023-04-20T18:43:00.429Z,7.60
2023-04-20T18:45:29.107Z,7.60
2023-04-20T18:47:58.657Z,7.40
2023-04-20T18:50:25.951Z,7.20
2023-04-20T18:52:53.087Z,7.30
2023-04-20T18:55:23.321Z,7.30
2023-04-20T18:57:50.792Z,6.90
2023-04-20T19:00:29.698Z,6.90
2023-04-20T19:02:57.222Z,6.90
2023-04-20T19:05:24.780Z,7.00
2023-04-20T19:07:51.852Z,6.80
2023-04-20T19:10:19.318Z,6.60
2023-04-20T19:12:50.076Z,6.50
2023-04-20T19:15:17.386Z,6.70
2023-04-20T19:17:44.888Z,6.80
2023-04-20T19:20:12.406Z,6.50
2023-04-20T19:22:40.172Z,6.80
2023-04-20T19:25:08.287Z,6.70
2023-04-20T19:27:38.689Z,6.70
2023-04-20T19:30:07.055Z,6.40
2023-04-20T19:32:44.884Z,6.60
2023-04-20T19:35:12.120Z,6.50
2023-04-20T19:37:39.775Z,6.60
2023-04-20T19:40:07.787Z,6.40
2023-04-20T19:42:35.452Z,6.50
2023-04-20T19:45:03.675Z,6.50
2023-04-20T19:47:31.271Z,6.60
2023-04-20T19:49:58.711Z,6.50
2023-04-20T19:52:27.902Z,6.60
2023-04-20T19:54:55.340Z,6.50
2023-04-20T19:57:22.872Z,6.70
2023-04-20T19:59:50.277Z,6.50
2023-04-20T20:02:17.734Z,6.50
2023-04-20T20:04:45.414Z,6.30
2023-04-20T20:07:13.570Z,6.40
2023-04-20T20:09:41.199Z,6.20
2023-04-20T20:12:10.949Z,6.20
2023-04-20T20:14:38.347Z,6.20
2023-04-20T20:17:05.627Z,6.10
2023-04-20T20:19:33.499Z,6.20
2023-04-20T20:22:01.223Z,5.90
2023-04-20T20:24:28.275Z,6.10
2023-04-20T20:26:55.764Z,6.10
2023-04-20T20:29:23.224Z,5.90
2023-04-20T20:31:50.355Z,5.90
2023-04-20T20:34:17.849Z,5.80
2023-04-20T20:36:46.475Z,5.80
2023-04-20T20:39:25.740Z,5.90
2023-04-20T20:41:53.009Z,6.10
2023-04-20T20:44:20.980Z,5.80
2023-04-20T20:46:48.533Z,5.90
2023-04-20T20:49:16.643Z,5.90
2023-04-20T20:51:43.937Z,5.90
2023-04-20T20:54:11.223Z,6.00
2023-04-20T20:56:38.857Z,5.90
2023-04-20T20:59:06.250Z,5.70
2023-04-20T21:01:33.736Z,5.50
2023-04-20T21:04:01.579Z,5.60
2023-04-20T21:06:29.314Z,5.50
2023-04-20T21:09:06.495Z,5.50
2023-04-20T21:11:33.891Z,5.20
2023-04-20T21:14:02.961Z,5.30
2023-04-20T21:16:30.190Z,5.20
2023-04-20T21:18:57.407Z,5.20
2023-04-20T21:21:24.549Z,5.40
2023-04-20T21:23:52.207Z,5.40
2023-04-20T21:26:19.907Z,5.50
2023-04-20T21:28:46.947Z,5.30
2023-04-20T21:31:14.312Z,5.50
2023-04-20T21:33:41.898Z,5.50
2023-04-20T21:36:09.225Z,5.60
2023-04-20T21:38:36.498Z,5.40
2023-04-20T21:41:04.098Z,5.60
2023-04-20T21:43:31.571Z,5.60
2023-04-20T21:45:59.170Z,5.60
2023-04-20T21:48:27.283Z,5.60
2023-04-20T21:50:54.396Z,5.50
2023-04-20T21:53:22.414Z,5.60
2023-04-20T21:55:49.894Z,5.50
2023-04-20T21:58:17.215Z,5.30
2023-04-20T22:00:44.419Z,5.20
2023-04-20T22:03:12.218Z,5.20
2023-04-20T22:05:43.841Z,5.50
2023-04-20T22:08:15.411Z,5.40
2023-04-20T22:10:42.795Z,5.70
2023-04-20T22:13:10.622Z,5.60
2023-04-20T22:15:38.089Z,5.40
2023-04-20T22:18:05.903Z,5.50
2023-04-20T22:20:36.029Z,5.40
2023-04-20T22:23:04.217Z,5.40
2023-04-20T22:25:31.837Z,5.30
2023-04-20T22:27:59.014Z,5.20
2023-04-20T22:30:26.361Z,5.20
2023-04-20T22:32:54.213Z,5.10
2023-04-20T22:35:25.098Z,5.10
2023-04-20T22:37:52.669Z,5.10
2023-04-20T22:40:19.898Z,4.80
2023-04-20T22:42:47.240Z,5.00
2023-04-20T22:45:15.034Z,5.00
2023-04-20T22:47:42.423Z,5.30
2023-04-20T22:50:12.679Z,5.20
2023-04-20T22:52:43.017Z,5.40
2023-04-20T22:55:11.042Z,5.40
2023-04-20T22:57:39.428Z,5.60
2023-04-20T23:00:10.830Z,5.50
2023-04-20T23:02:38.510Z,5.50
2023-04-20T23:05:06.609Z,5.40
2023-04-20T23:07:33.834Z,5.50
2023-04-20T23:10:01.748Z,5.60
2023-04-20T23:12:32.450Z,5.90
2023-04-20T23:15:02.998Z,5.60
2023-04-20T23:17:30.472Z,5.90
2023-04-20T23:19:58.561Z,5.70
2023-04-20T23:22:26.067Z,5.70
2023-04-20T23:24:53.569Z,5.50
2023-04-20T23:27:21.037Z,5.80
2023-04-20T23:29:48.282Z,5.60
2023-04-20T23:32:16.210Z,5.60
2023-04-20T23:34:43.680Z,5.50
2023-04-20T23:37:11.185Z,5.30
2023-04-20T23:39:38.504Z,5.10
2023-04-20T23:42:06.423Z,4.90
2023-04-20T23:44:33.662Z,5.10
2023-04-20T23:47:00.745Z,4.90
2023-04-20T23:49:27.887Z,4.90
2023-04-20T23:51:55.359Z,4.70
2023-04-20T23:54:23.079Z,4.60
2023-04-20T23:56:50.366Z,4.60
2023-04-20T23:59:17.697Z,4.80
